createdAt,value
2018-02-14T00:00:58.081Z,17.70
2018-02-14T00:03:24.489Z,16.30
2018-02-14T00:05:50.922Z,17.48
2018-02-14T00:08:17.302Z,18.37
2018-02-14T00:10:43.745Z,19.25
2018-02-14T00:13:10.149Z,17.42
2018-02-14T00:15:36.554Z,16.50
2018-02-14T00:18:02.964Z,17.70
2018-02-14T00:20:31.298Z,18.37
2018-02-14T00:22:58.114Z,16.58
2018-02-14T00:25:24.533Z,17.85
2018-02-14T00:27:50.957Z,17.30
2018-02-14T00:30:18.100Z,18.20
2018-02-14T00:32:45.305Z,17.60
2018-02-14T00:35:11.721Z,18.42
2018-02-14T00:37:38.177Z,19.58
2018-02-14T00:40:04.604Z,19.10
2018-02-14T00:42:31.008Z,19.67
2018-02-14T00:44:57.410Z,18.92
2018-02-14T00:47:23.790Z,19.20
2018-02-14T00:49:50.198Z,18.08
2018-02-14T00:52:17.319Z,16.75
2018-02-14T00:54:43.718Z,18.62
2018-02-14T00:57:10.090Z,17.50
2018-02-14T00:59:36.505Z,17.55
2018-02-14T01:02:02.914Z,13.82
2018-02-14T01:04:29.290Z,16.23
2018-02-14T01:06:55.687Z,16.77
2018-02-14T01:09:22.052Z,15.63
2018-02-14T01:11:48.480Z,18.25
2018-02-14T01:14:14.903Z,16.85
2018-02-14T01:16:41.303Z,15.15
2018-02-14T01:19:13.626Z,18.60
2018-02-14T01:21:45.909Z,17.12
2018-02-14T01:24:12.300Z,18.05
2018-02-14T01:26:38.704Z,18.85
2018-02-14T01:29:05.132Z,18.35
2018-02-14T01:31:32.297Z,19.35
2018-02-14T01:33:58.669Z,18.23
2018-02-14T01:36:25.088Z,16.48
2018-02-14T01:38:51.458Z,19.85
2018-02-14T01:41:17.939Z,19.48
2018-02-14T01:43:44.334Z,16.67
2018-02-14T01:46:10.751Z,24.08
2018-02-14T01:48:37.139Z,24.63
2018-02-14T01:51:03.582Z,20.17
2018-02-14T01:53:29.985Z,19.12
2018-02-14T01:55:57.109Z,18.87
2018-02-14T01:58:23.511Z,18.37
2018-02-14T02:00:49.892Z,19.83
2018-02-14T02:03:16.321Z,17.55
2018-02-14T02:05:42.710Z,17.05
2018-02-14T02:08:09.113Z,16.65
2018-02-14T02:10:36.249Z,18.87
2018-02-14T02:13:02.643Z,18.00
2018-02-14T02:15:29.077Z,18.60
2018-02-14T02:17:55.503Z,19.00
2018-02-14T02:20:21.928Z,19.02
2018-02-14T02:22:48.318Z,26.10
2018-02-14T02:25:14.737Z,20.90
2018-02-14T02:27:41.155Z,20.02
2018-02-14T02:30:07.554Z,19.33
2018-02-14T02:32:33.967Z,20.05
2018-02-14T02:35:01.086Z,19.17
2018-02-14T02:37:27.543Z,17.35
2018-02-14T02:40:06.100Z,18.80
2018-02-14T02:42:32.523Z,18.42
2018-02-14T02:44:58.933Z,17.80
2018-02-14T02:47:26.082Z,17.90
2018-02-14T02:49:52.474Z,18.85
2018-02-14T02:52:18.903Z,19.80
2018-02-14T02:54:45.379Z,20.08
2018-02-14T02:57:12.668Z,18.05
2018-02-14T02:59:39.096Z,16.73
2018-02-14T03:14:18.953Z,15.20
2018-02-14T03:16:45.361Z,23.67
2018-02-14T03:19:12.497Z,24.08
2018-02-14T03:21:38.901Z,25.50
2018-02-14T03:24:05.297Z,24.77
2018-02-14T03:26:31.708Z,25.20
2018-02-14T03:28:58.865Z,18.60
2018-02-14T03:33:58.970Z,17.37
2018-02-14T03:36:25.390Z,18.00
2018-02-14T03:38:51.773Z,16.60
2018-02-14T03:41:18.955Z,16.73
2018-02-14T03:43:45.411Z,17.58
2018-02-14T03:46:11.858Z,17.40
2018-02-14T03:48:38.253Z,17.62
2018-02-14T03:51:04.690Z,19.02
2018-02-14T03:53:31.113Z,17.37
2018-02-14T03:55:57.514Z,18.65
2018-02-14T03:58:23.940Z,24.63
2018-02-14T04:00:50.462Z,25.08
2018-02-14T04:03:16.931Z,23.10
2018-02-14T04:05:44.066Z,17.92
2018-02-14T04:08:10.514Z,16.85
2018-02-14T04:10:37.677Z,17.42
2018-02-14T04:13:04.873Z,24.48
2018-02-14T04:15:31.338Z,18.15
2018-02-14T04:20:24.059Z,17.20
2018-02-14T04:22:50.441Z,22.65
2018-02-14T04:25:16.894Z,23.23
2018-02-14T04:27:44.031Z,19.65
2018-02-14T04:30:10.474Z,19.50
2018-02-14T04:32:37.653Z,17.05
2018-02-14T04:35:04.129Z,25.17
2018-02-14T04:37:30.557Z,24.87
2018-02-14T04:39:56.950Z,24.87
2018-02-14T04:42:23.438Z,26.80
2018-02-14T04:44:49.857Z,26.87
2018-02-14T04:47:16.265Z,29.80
2018-02-14T04:49:42.660Z,29.58
2018-02-14T04:52:09.094Z,25.05
2018-02-14T04:54:35.480Z,23.05
2018-02-14T04:57:02.138Z,23.57
2018-02-14T04:59:28.611Z,19.70
2018-02-14T08:51:19.391Z,18.45
2018-02-14T08:53:46.575Z,22.27
2018-02-14T08:56:13.030Z,25.10
2018-02-14T08:58:39.449Z,23.85
2018-02-14T09:01:05.865Z,20.15
2018-02-14T09:03:33.032Z,19.37
2018-02-14T09:05:59.422Z,18.90
2018-02-14T09:08:25.825Z,16.73
2018-02-14T09:10:52.214Z,16.85
2018-02-14T09:13:19.368Z,15.43
2018-02-14T09:15:46.563Z,16.42
2018-02-14T09:18:12.942Z,16.17
2018-02-14T09:20:40.123Z,15.80
2018-02-14T09:23:06.549Z,17.17
2018-02-14T09:25:33.009Z,15.70
2018-02-14T09:27:59.442Z,18.10
2018-02-14T09:30:25.855Z,17.05
2018-02-14T09:32:52.288Z,17.70
2018-02-14T09:35:18.732Z,15.88
2018-02-14T09:37:52.161Z,16.58
2018-02-14T09:40:18.565Z,17.90
2018-02-14T09:42:44.962Z,16.62
2018-02-14T09:45:11.365Z,15.77
2018-02-14T09:47:37.761Z,14.68
2018-02-14T09:50:04.176Z,16.23
2018-02-14T09:52:31.499Z,14.95
2018-02-14T09:54:58.688Z,15.40
2018-02-14T09:57:25.870Z,15.88
2018-02-14T09:59:52.356Z,16.55
2018-02-14T10:02:19.573Z,14.85
2018-02-14T10:04:46.057Z,14.75
2018-02-14T10:07:13.218Z,13.25
2018-02-14T10:09:40.368Z,14.82
2018-02-14T10:12:07.505Z,13.68
2018-02-14T10:14:34.629Z,12.05
2018-02-14T10:17:01.042Z,15.98
2018-02-14T10:19:27.604Z,12.65
2018-02-14T10:21:54.028Z,13.25
2018-02-14T10:24:20.434Z,11.88
2018-02-14T10:26:46.890Z,12.10
2018-02-14T10:29:13.357Z,11.30
2018-02-14T10:31:40.578Z,12.30
2018-02-14T10:34:06.962Z,12.10
2018-02-14T10:36:34.111Z,12.80
2018-02-14T10:39:01.281Z,12.77
2018-02-14T10:41:27.686Z,15.00
2018-02-14T10:43:54.870Z,13.62
2018-02-14T10:46:21.319Z,14.35
2018-02-14T10:48:47.709Z,14.95
2018-02-14T10:51:14.857Z,14.25
2018-02-14T10:53:42.020Z,13.95
2018-02-14T10:56:09.222Z,14.95
2018-02-14T10:58:35.629Z,13.88
2018-02-14T11:01:02.047Z,14.13
2018-02-14T11:03:35.306Z,14.15
2018-02-14T11:06:07.778Z,13.20
2018-02-14T11:08:34.169Z,13.30
2018-02-14T11:11:00.586Z,13.20
2018-02-14T11:13:27.750Z,14.07
2018-02-14T11:15:54.157Z,14.85
2018-02-14T11:18:21.378Z,15.23
2018-02-14T11:20:47.794Z,14.30
2018-02-14T11:23:14.211Z,15.02
2018-02-14T11:25:40.635Z,15.43
2018-02-14T11:28:07.767Z,14.40
2018-02-14T11:30:34.917Z,30.23
2018-02-14T11:33:02.083Z,15.43
2018-02-14T11:35:29.204Z,34.47
2018-02-14T11:37:55.609Z,15.05
2018-02-14T11:40:22.018Z,26.83
2018-02-14T11:42:48.425Z,16.20
2018-02-14T11:45:15.582Z,40.17
2018-02-14T11:47:42.739Z,22.08
2018-02-14T11:50:09.872Z,14.15
2018-02-14T11:52:37.020Z,15.63
2018-02-14T11:55:03.427Z,14.48
2018-02-14T11:57:29.849Z,12.07
2018-02-14T11:59:56.259Z,14.73
2018-02-14T12:02:22.708Z,14.25
2018-02-14T12:04:49.144Z,13.98
2018-02-14T12:07:15.552Z,16.27
2018-02-14T12:09:41.962Z,12.02
2018-02-14T12:12:08.371Z,14.45
2018-02-14T12:14:34.788Z,15.00
2018-02-14T12:17:01.226Z,18.87
2018-02-14T12:19:27.607Z,16.25
2018-02-14T12:21:54.810Z,15.85
2018-02-14T12:24:21.214Z,15.00
2018-02-14T12:26:47.616Z,13.95
2018-02-14T12:29:14.010Z,16.02
2018-02-14T12:31:40.422Z,14.13
2018-02-14T12:34:06.809Z,16.10
2018-02-14T12:36:33.221Z,13.98
2018-02-14T12:38:59.601Z,17.40
2018-02-14T12:41:26.746Z,16.10
2018-02-14T12:43:53.895Z,15.98
2018-02-14T12:46:21.030Z,16.80
2018-02-14T12:48:47.438Z,14.98
2018-02-14T12:51:13.853Z,13.38
2018-02-14T12:53:40.235Z,14.93
2018-02-14T12:56:06.643Z,17.05
2018-02-14T12:58:33.041Z,15.80
2018-02-14T13:00:59.417Z,15.35
2018-02-14T13:03:25.845Z,17.35
2018-02-14T13:05:52.246Z,17.73
2018-02-14T13:08:18.639Z,16.23
2018-02-14T13:10:45.060Z,16.50
2018-02-14T13:13:11.452Z,13.82
2018-02-14T13:15:37.865Z,14.70
2018-02-14T13:18:05.021Z,14.93
2018-02-14T13:20:31.442Z,15.75
2018-02-14T13:22:58.594Z,16.30
2018-02-14T13:25:25.750Z,15.43
2018-02-14T13:27:52.907Z,18.80
2018-02-14T13:30:20.510Z,16.60
2018-02-14T13:32:46.957Z,16.73
2018-02-14T13:35:13.366Z,18.00
2018-02-14T13:37:39.796Z,17.25
2018-02-14T13:40:06.221Z,16.80
2018-02-14T13:42:32.626Z,18.48
2018-02-14T13:44:59.792Z,16.70
2018-02-14T13:47:26.937Z,17.95
2018-02-14T13:49:54.077Z,16.20
2018-02-14T13:52:20.477Z,17.15
2018-02-14T13:54:46.895Z,18.35
2018-02-14T13:57:13.265Z,18.73
2018-02-14T13:59:39.872Z,20.15
2018-02-14T14:02:06.274Z,15.73
2018-02-14T14:04:32.689Z,18.62
2018-02-14T14:06:59.859Z,19.25
2018-02-14T14:09:26.998Z,20.75
2018-02-14T14:11:54.142Z,20.58
2018-02-14T14:14:21.447Z,17.98
2018-02-14T14:16:47.866Z,24.12
2018-02-14T14:19:14.280Z,21.48
2018-02-14T14:21:41.429Z,23.45
2018-02-14T14:24:08.596Z,21.42
2018-02-14T14:26:35.022Z,21.35
2018-02-14T14:29:02.157Z,22.17
2018-02-14T14:31:29.355Z,22.95
2018-02-14T14:33:55.732Z,21.33
2018-02-14T14:36:22.167Z,19.58
2018-02-14T14:38:49.358Z,23.00
2018-02-14T14:41:15.815Z,23.30
2018-02-14T14:43:42.250Z,21.73
2018-02-14T14:46:08.657Z,23.00
2018-02-14T14:48:35.183Z,23.25
2018-02-14T14:51:02.328Z,22.20
2018-02-14T14:53:29.465Z,24.92
2018-02-14T14:55:56.608Z,23.70
2018-02-14T14:58:23.009Z,22.70
2018-02-14T15:00:49.434Z,21.20
2018-02-14T15:03:15.845Z,23.55
2018-02-14T15:05:42.410Z,24.05
2018-02-14T15:08:08.785Z,24.35
2018-02-14T15:10:35.203Z,21.05
2018-02-14T15:13:01.679Z,25.73
2018-02-14T15:15:28.818Z,24.35
2018-02-14T15:17:55.971Z,24.70
2018-02-14T15:20:23.133Z,25.25
2018-02-14T15:22:50.256Z,27.10
2018-02-14T15:25:16.666Z,24.55
2018-02-14T15:27:43.071Z,24.10
2018-02-14T15:30:10.427Z,25.98
2018-02-14T15:32:36.842Z,26.60
2018-02-14T15:35:04.031Z,26.08
2018-02-14T15:37:30.519Z,27.50
2018-02-14T15:39:57.665Z,26.25
2018-02-14T15:42:24.798Z,27.55
2018-02-14T15:44:51.271Z,26.73
2018-02-14T15:47:18.448Z,32.40
2018-02-14T15:49:44.830Z,31.85
2018-02-14T15:52:11.241Z,33.20
2018-02-14T15:54:37.706Z,32.92
2018-02-14T15:57:04.080Z,32.38
2018-02-14T15:59:30.507Z,32.25
2018-02-14T16:01:56.943Z,32.20
2018-02-14T16:04:23.341Z,32.43
2018-02-14T16:06:49.753Z,33.47
2018-02-14T16:09:16.157Z,32.33
2018-02-14T16:11:42.564Z,32.50
2018-02-14T16:14:16.853Z,32.60
2018-02-14T16:16:43.253Z,33.13
2018-02-14T16:19:09.654Z,29.55
2018-02-14T16:21:36.820Z,27.42
2018-02-14T16:24:03.253Z,27.85
2018-02-14T16:26:29.666Z,26.98
2018-02-14T16:28:56.845Z,28.38
2018-02-14T16:31:23.239Z,32.60
2018-02-14T16:33:49.638Z,33.55
2018-02-14T16:36:16.181Z,37.33
2018-02-14T16:38:42.592Z,43.10
2018-02-14T16:41:09.001Z,47.88
2018-02-14T16:43:35.390Z,42.55
2018-02-14T16:46:01.904Z,40.77
2018-02-14T16:48:28.313Z,41.10
2018-02-14T16:50:54.696Z,39.08
2018-02-14T16:53:21.112Z,40.63
2018-02-14T16:55:47.509Z,41.47
2018-02-14T16:58:13.904Z,39.17
2018-02-14T17:00:40.326Z,38.00
2018-02-14T17:03:06.817Z,38.53
2018-02-14T17:05:33.235Z,39.15
2018-02-14T17:08:00.373Z,38.50
2018-02-14T17:10:27.525Z,38.90
2018-02-14T17:12:53.926Z,41.10
2018-02-14T17:15:20.345Z,40.85
2018-02-14T17:17:46.782Z,40.92
2018-02-14T17:20:13.194Z,42.97
2018-02-14T17:22:39.606Z,43.97
2018-02-14T17:25:06.781Z,43.70
2018-02-14T17:27:33.169Z,41.88
2018-02-14T17:29:59.570Z,41.95
2018-02-14T17:32:26.054Z,43.70
2018-02-14T17:34:53.194Z,44.60
2018-02-14T17:37:19.612Z,43.60
2018-02-14T17:39:46.022Z,42.10
2018-02-14T17:42:12.451Z,43.60
2018-02-14T17:44:38.879Z,41.40
2018-02-14T17:47:05.378Z,43.05
2018-02-14T17:49:34.107Z,42.80
2018-02-14T17:52:02.749Z,42.50
2018-02-14T17:54:31.188Z,40.85
2018-02-14T17:56:59.828Z,41.00
2018-02-14T17:59:29.685Z,42.10
2018-02-14T18:02:00.176Z,41.33
2018-02-14T18:04:26.860Z,42.97
2018-02-14T18:06:56.076Z,45.03
2018-02-14T18:09:22.902Z,42.05
2018-02-14T18:11:49.642Z,43.77
2018-02-14T18:14:17.412Z,44.33
2018-02-14T18:16:44.186Z,43.70
2018-02-14T18:19:11.018Z,43.97
2018-02-14T18:21:38.511Z,45.60
2018-02-14T18:24:05.501Z,45.00
2018-02-14T18:26:32.126Z,45.20
2018-02-14T18:28:58.724Z,45.20
2018-02-14T18:31:26.172Z,43.40
2018-02-14T18:33:54.513Z,45.42
2018-02-14T18:36:20.950Z,43.43
2018-02-14T18:38:48.027Z,44.97
2018-02-14T18:41:14.659Z,46.10
2018-02-14T18:43:42.539Z,47.03
2018-02-14T18:46:09.356Z,48.35
2018-02-14T18:48:35.995Z,47.08
2018-02-14T18:51:02.971Z,46.25
2018-02-14T18:53:29.794Z,48.90
2018-02-14T18:55:56.641Z,48.60
2018-02-14T18:58:23.892Z,47.20
2018-02-14T19:00:50.735Z,47.55
2018-02-14T19:03:17.577Z,48.30
2018-02-14T19:05:44.417Z,49.05
2018-02-14T19:08:11.208Z,48.13
2018-02-14T19:10:38.659Z,52.62
2018-02-14T19:13:05.550Z,49.67
2018-02-14T19:15:32.335Z,50.17
2018-02-14T19:18:00.582Z,51.42
2018-02-14T19:20:27.147Z,50.50
2018-02-14T19:22:53.625Z,49.42
2018-02-14T19:25:20.834Z,50.80
2018-02-14T19:27:47.242Z,49.67
2018-02-14T19:30:13.635Z,49.92
2018-02-14T19:32:43.278Z,56.97
2018-02-14T19:35:11.820Z,52.47
2018-02-14T19:37:38.980Z,50.08
2018-02-14T19:40:08.482Z,56.17
2018-02-14T19:42:36.499Z,60.22
2018-02-14T19:45:05.022Z,53.55
2018-02-14T19:47:35.674Z,49.35
2018-02-14T19:50:05.206Z,64.55
2018-02-14T19:52:34.294Z,56.25
2018-02-14T19:55:03.253Z,54.90
2018-02-14T19:57:32.208Z,56.10
2018-02-14T20:00:00.226Z,61.88
2018-02-14T20:02:32.569Z,70.00
2018-02-14T20:05:00.668Z,52.35
2018-02-14T20:07:31.526Z,55.85
2018-02-14T20:10:00.498Z,55.42
2018-02-14T20:12:29.289Z,54.72
2018-02-14T20:14:58.202Z,56.65
2018-02-14T20:17:25.417Z,56.95
2018-02-14T20:19:51.811Z,56.80
2018-02-14T20:22:18.220Z,63.35
2018-02-14T20:24:45.370Z,59.35
2018-02-14T20:27:12.525Z,53.15
2018-02-14T20:29:39.659Z,56.40
2018-02-14T20:32:06.828Z,57.42
2018-02-14T20:34:34.019Z,59.25
2018-02-14T20:37:01.841Z,61.70
2018-02-14T20:39:29.350Z,60.42
2018-02-14T20:41:58.631Z,62.33
2018-02-14T20:44:25.663Z,57.03
2018-02-14T20:46:59.152Z,59.58
2018-02-14T20:49:32.603Z,54.33
2018-02-14T20:52:00.491Z,54.60
2018-02-14T20:54:31.609Z,55.40
2018-02-14T20:57:03.865Z,57.17
2018-02-14T20:59:35.659Z,55.93
2018-02-14T21:04:34.641Z,41.17
2018-02-14T21:07:03.882Z,53.38
2018-02-14T21:09:32.665Z,55.17
2018-02-14T21:12:01.867Z,58.17
2018-02-14T21:14:30.780Z,58.22
2018-02-14T21:17:05.340Z,57.38
2018-02-14T21:19:31.749Z,54.55
2018-02-14T21:21:58.926Z,53.35
2018-02-14T21:24:25.330Z,50.90
2018-02-14T21:26:52.205Z,53.33
2018-02-14T21:29:18.611Z,53.60
2018-02-14T21:31:45.761Z,53.78
2018-02-14T21:34:12.204Z,51.08
2018-02-14T21:36:39.392Z,53.72
2018-02-14T21:39:05.782Z,51.42
2018-02-14T21:41:32.184Z,51.67
2018-02-14T21:43:58.613Z,53.72
2018-02-14T21:46:25.018Z,52.60
2018-02-14T21:48:51.432Z,53.42
2018-02-14T21:51:18.589Z,54.60
2018-02-14T21:53:45.714Z,56.53
2018-02-14T21:56:12.137Z,52.53
2018-02-14T21:58:38.567Z,53.85
2018-02-14T22:01:04.964Z,50.30
2018-02-14T22:03:31.394Z,49.47
2018-02-14T22:05:57.839Z,48.80
2018-02-14T22:08:24.257Z,49.60
2018-02-14T22:10:50.678Z,49.20
2018-02-14T22:13:17.833Z,47.10
2018-02-14T22:15:45.007Z,48.95
2018-02-14T22:18:11.622Z,48.30
2018-02-14T22:20:38.832Z,48.60
2018-02-14T22:23:05.229Z,47.03
2018-02-14T22:25:31.698Z,47.92
2018-02-14T22:27:58.126Z,47.28
2018-02-14T22:30:24.574Z,45.42
2018-02-14T22:32:51.002Z,45.13
2018-02-14T22:35:17.406Z,45.05
2018-02-14T22:37:43.813Z,43.70
2018-02-14T22:40:10.982Z,44.45
2018-02-14T22:42:37.422Z,43.45
2018-02-14T22:45:03.877Z,47.78
2018-02-14T22:47:30.271Z,47.85
2018-02-14T22:49:57.429Z,47.08
2018-02-14T22:52:24.669Z,47.38
2018-02-14T22:54:51.801Z,47.58
2018-02-14T22:57:18.962Z,45.10
2018-02-14T22:59:45.364Z,45.05
2018-02-14T23:02:11.773Z,44.65
2018-02-14T23:04:38.246Z,45.15
2018-02-14T23:07:04.662Z,45.08
2018-02-14T23:09:31.054Z,42.58
2018-02-14T23:11:58.226Z,42.33
2018-02-14T23:14:24.622Z,39.00
2018-02-14T23:16:51.040Z,39.15
2018-02-14T23:19:17.559Z,39.00
2018-02-14T23:21:43.958Z,40.78
2018-02-14T23:24:10.363Z,39.53
2018-02-14T23:26:37.507Z,39.17
2018-02-14T23:29:04.677Z,39.25
2018-02-14T23:31:31.878Z,38.58
2018-02-14T23:33:58.281Z,38.10
2018-02-14T23:36:24.749Z,37.72
2018-02-14T23:38:51.132Z,39.10
2018-02-14T23:41:18.283Z,38.10
2018-02-14T23:43:45.438Z,38.13
2018-02-14T23:46:12.562Z,38.70
2018-02-14T23:48:39.721Z,39.47
2018-02-14T23:51:06.142Z,38.17
2018-02-14T23:53:32.530Z,37.65
2018-02-14T23:55:58.934Z,37.85
2018-02-14T23:58:26.093Z,36.47
